createdAt,value
2022-11-15T00:00:32.058Z,16.73
2022-11-15T00:03:19.065Z,16.30
2022-11-15T00:06:07.844Z,17.00
2022-11-15T00:08:54.652Z,16.00
2022-11-15T00:11:41.780Z,18.60
2022-11-15T00:14:28.776Z,16.67
2022-11-15T00:17:15.779Z,16.70
2022-11-15T00:20:03.033Z,15.40
2022-11-15T00:22:51.215Z,18.40
2022-11-15T00:25:38.006Z,19.57
2022-11-15T00:28:24.897Z,16.03
2022-11-15T00:31:14.250Z,13.50
2022-11-15T00:34:01.111Z,14.83
2022-11-15T00:36:47.924Z,14.17
2022-11-15T00:39:36.633Z,15.00
2022-11-15T00:42:23.369Z,14.13
2022-11-15T00:45:11.379Z,13.87
2022-11-15T00:47:58.280Z,15.53
2022-11-15T00:50:45.661Z,19.23
2022-11-15T00:53:32.971Z,16.83
2022-11-15T00:56:21.553Z,16.47
2022-11-15T00:59:08.365Z,13.53
2022-11-15T01:01:55.474Z,13.63
2022-11-15T01:04:42.542Z,17.03
2022-11-15T01:07:29.665Z,13.47
2022-11-15T01:10:16.823Z,12.43
2022-11-15T01:13:04.996Z,14.30
2022-11-15T01:15:52.447Z,11.63
2022-11-15T01:18:39.489Z,12.10
2022-11-15T01:21:26.495Z,12.83
2022-11-15T01:24:14.699Z,12.23
2022-11-15T01:27:01.571Z,12.33
2022-11-15T01:29:50.055Z,11.10
2022-11-15T01:32:36.789Z,12.50
2022-11-15T01:35:24.151Z,14.40
2022-11-15T01:38:11.094Z,12.70
2022-11-15T01:40:58.316Z,13.87
2022-11-15T01:43:45.412Z,12.93
2022-11-15T01:46:35.195Z,14.13
2022-11-15T01:49:23.329Z,14.00
2022-11-15T01:52:11.745Z,13.70
2022-11-15T01:55:01.047Z,12.97
2022-11-15T01:57:49.514Z,15.17
2022-11-15T02:00:37.213Z,12.80
2022-11-15T02:03:28.453Z,15.47
2022-11-15T02:06:16.157Z,11.83
2022-11-15T02:09:03.276Z,11.33
2022-11-15T02:11:51.222Z,14.70
2022-11-15T02:14:39.160Z,14.00
2022-11-15T02:17:31.882Z,12.07
2022-11-15T02:20:40.462Z,15.50
2022-11-15T02:23:46.140Z,14.10
2022-11-15T02:26:45.655Z,14.00
2022-11-15T02:29:41.264Z,12.67
2022-11-15T02:32:35.607Z,15.30
2022-11-15T02:35:26.465Z,13.07
2022-11-15T02:38:20.383Z,15.60
2022-11-15T02:41:09.066Z,14.63
2022-11-15T02:43:58.349Z,13.87
2022-11-15T02:47:01.378Z,12.33
2022-11-15T02:49:50.664Z,16.90
2022-11-15T02:52:37.805Z,14.57
2022-11-15T02:55:29.473Z,13.50
2022-11-15T02:58:33.859Z,12.40
2022-11-15T03:01:26.598Z,11.50
2022-11-15T03:04:18.225Z,12.87
2022-11-15T03:07:10.588Z,15.00
2022-11-15T03:09:59.643Z,15.83
2022-11-15T03:12:49.031Z,12.97
2022-11-15T03:15:39.821Z,12.80
2022-11-15T03:18:31.442Z,14.07
2022-11-15T03:21:18.874Z,13.20
2022-11-15T03:24:09.159Z,12.23
2022-11-15T03:26:56.634Z,11.13
2022-11-15T03:29:46.445Z,14.10
2022-11-15T03:32:35.049Z,13.90
2022-11-15T03:35:23.718Z,13.23
2022-11-15T03:38:16.652Z,13.63
2022-11-15T03:41:08.379Z,14.53
2022-11-15T03:43:58.306Z,16.93
2022-11-15T03:46:48.729Z,17.30
2022-11-15T03:49:36.490Z,14.97
2022-11-15T03:52:24.462Z,11.73
2022-11-15T03:55:13.806Z,14.63
2022-11-15T03:58:02.716Z,14.50
2022-11-15T04:00:50.022Z,11.67
2022-11-15T04:03:37.013Z,14.60
2022-11-15T04:06:26.618Z,18.03
2022-11-15T04:09:13.801Z,13.40
2022-11-15T04:12:00.805Z,12.97
2022-11-15T04:15:08.054Z,12.80
2022-11-15T04:17:55.962Z,15.23
2022-11-15T04:21:00.631Z,12.10
2022-11-15T04:24:07.473Z,13.23
2022-11-15T04:26:54.556Z,14.57
2022-11-15T04:29:41.572Z,14.57
2022-11-15T04:32:29.842Z,12.77
2022-11-15T04:35:17.066Z,12.87
2022-11-15T04:38:04.690Z,16.30
2022-11-15T04:40:51.405Z,17.30
2022-11-15T04:43:38.599Z,15.23
2022-11-15T04:46:26.187Z,16.37
2022-11-15T04:49:14.618Z,16.13
2022-11-15T04:52:01.736Z,17.23
2022-11-15T04:54:48.618Z,12.73
2022-11-15T04:57:35.771Z,12.27
2022-11-15T05:00:22.863Z,12.07
2022-11-15T05:03:29.666Z,13.63
2022-11-15T05:06:18.319Z,18.37
2022-11-15T05:09:06.668Z,15.17
2022-11-15T05:11:53.827Z,15.50
2022-11-15T05:14:40.796Z,10.77
2022-11-15T05:17:27.993Z,15.53
2022-11-15T05:20:15.405Z,15.97
2022-11-15T05:23:03.793Z,19.57
2022-11-15T05:25:50.618Z,12.67
2022-11-15T05:28:38.120Z,12.10
2022-11-15T05:31:25.902Z,12.07
2022-11-15T05:34:12.573Z,14.57
2022-11-15T05:36:59.631Z,12.30
2022-11-15T05:39:48.220Z,13.13
2022-11-15T05:42:35.251Z,11.50
2022-11-15T05:45:26.710Z,14.73
2022-11-15T05:48:14.430Z,15.77
2022-11-15T05:51:01.965Z,10.97
2022-11-15T05:53:49.437Z,14.40
2022-11-15T05:56:37.640Z,16.20
2022-11-15T05:59:24.626Z,10.83
2022-11-15T06:02:12.085Z,11.73
2022-11-15T06:04:59.237Z,12.23
2022-11-15T06:07:46.226Z,12.37
2022-11-15T06:10:33.083Z,14.60
2022-11-15T06:13:21.413Z,13.13
2022-11-15T06:16:08.753Z,11.83
2022-11-15T06:18:55.728Z,12.50
2022-11-15T06:21:42.939Z,12.53
2022-11-15T06:24:30.146Z,14.40
2022-11-15T06:27:17.432Z,18.13
2022-11-15T06:30:06.472Z,18.77
2022-11-15T06:32:54.065Z,19.10
2022-11-15T06:35:40.845Z,20.20
2022-11-15T06:38:27.883Z,22.63
2022-11-15T06:41:15.701Z,14.83
2022-11-15T06:44:02.911Z,17.67
2022-11-15T06:46:51.396Z,19.27
2022-11-15T06:49:38.410Z,18.73
2022-11-15T06:52:26.930Z,14.13
2022-11-15T06:55:13.881Z,16.57
2022-11-15T06:58:00.717Z,13.87
2022-11-15T07:00:47.996Z,13.90
2022-11-15T07:03:37.166Z,16.87
2022-11-15T07:06:24.431Z,18.23
2022-11-15T07:09:12.006Z,16.40
2022-11-15T07:12:03.255Z,12.70
2022-11-15T07:14:53.540Z,12.17
2022-11-15T07:17:40.878Z,14.33
2022-11-15T07:20:29.347Z,13.90
2022-11-15T07:23:16.362Z,13.37
2022-11-15T07:26:03.660Z,12.10
2022-11-15T07:28:50.935Z,11.43
2022-11-15T07:31:37.727Z,12.03
2022-11-15T07:34:24.941Z,13.67
2022-11-15T07:37:13.537Z,11.53
2022-11-15T07:40:03.245Z,11.77
2022-11-15T07:42:56.926Z,9.90
2022-11-15T07:45:44.935Z,9.57
2022-11-15T07:48:43.338Z,9.00
2022-11-15T07:51:31.608Z,8.53
2022-11-15T07:54:20.123Z,9.47
2022-11-15T07:57:08.132Z,12.70
2022-11-15T07:59:55.582Z,10.10
2022-11-15T08:02:43.090Z,12.73
2022-11-15T08:05:30.098Z,20.83
2022-11-15T08:08:17.249Z,25.37
2022-11-15T08:11:06.109Z,17.47
2022-11-15T08:13:53.134Z,15.13
2022-11-15T08:16:40.092Z,9.50
2022-11-15T08:19:27.246Z,10.90
2022-11-15T08:22:14.307Z,11.80
2022-11-15T08:25:01.558Z,16.47
2022-11-15T08:27:50.003Z,18.60
2022-11-15T08:30:38.525Z,11.07
2022-11-15T08:33:25.918Z,12.80
2022-11-15T08:36:15.652Z,10.97
2022-11-15T08:39:02.812Z,10.90
2022-11-15T08:41:50.029Z,8.13
2022-11-15T08:44:41.258Z,8.23
2022-11-15T08:47:28.213Z,11.47
2022-11-15T08:50:15.198Z,8.33
2022-11-15T08:53:06.711Z,9.63
2022-11-15T08:55:53.856Z,7.57
2022-11-15T08:58:41.110Z,8.57
2022-11-15T09:01:29.617Z,9.10
2022-11-15T09:04:16.971Z,8.00
2022-11-15T09:07:03.747Z,8.30
2022-11-15T09:09:50.662Z,7.73
2022-11-15T09:12:37.852Z,8.50
2022-11-15T09:15:25.059Z,9.20
2022-11-15T09:18:13.404Z,7.43
2022-11-15T09:21:00.805Z,8.77
2022-11-15T09:23:47.633Z,9.63
2022-11-15T09:26:35.001Z,7.27
2022-11-15T09:29:21.757Z,7.20
2022-11-15T09:32:08.539Z,9.17
2022-11-15T09:34:57.278Z,6.73
2022-11-15T09:37:44.213Z,7.00
2022-11-15T09:40:32.687Z,7.37
2022-11-15T09:43:33.479Z,7.30
2022-11-15T09:46:25.057Z,7.20
2022-11-15T09:49:12.152Z,8.80
2022-11-15T09:51:56.958Z,6.83
2022-11-15T09:54:52.212Z,6.07
2022-11-15T09:57:20.563Z,6.93
2022-11-15T10:00:04.064Z,6.03
2022-11-15T10:02:49.951Z,8.83
2022-11-15T10:05:20.905Z,6.53
2022-11-15T10:07:53.491Z,6.33
2022-11-15T10:10:25.600Z,6.17
2022-11-15T10:12:54.842Z,8.13
2022-11-15T10:15:24.325Z,8.53
2022-11-15T10:17:58.744Z,7.10
2022-11-15T10:20:28.547Z,7.93
2022-11-15T10:22:59.394Z,8.63
2022-11-15T10:25:28.744Z,8.20
2022-11-15T10:27:58.380Z,7.03
2022-11-15T10:30:32.997Z,6.63
2022-11-15T10:33:11.754Z,6.00
2022-11-15T10:35:40.237Z,6.17
2022-11-15T10:38:10.830Z,6.43
2022-11-15T10:40:39.655Z,6.13
2022-11-15T10:43:15.872Z,6.17
2022-11-15T10:45:44.792Z,7.87
2022-11-15T10:48:28.759Z,7.27
2022-11-15T10:50:57.807Z,8.03
2022-11-15T10:53:36.126Z,10.43
2022-11-15T10:56:06.963Z,8.07
2022-11-15T10:58:37.713Z,8.93
2022-11-15T11:01:13.481Z,7.83
2022-11-15T11:03:42.815Z,8.03
2022-11-15T11:06:12.630Z,5.63
2022-11-15T11:08:42.706Z,10.40
2022-11-15T11:11:11.248Z,9.47
2022-11-15T11:13:40.529Z,5.90
2022-11-15T11:16:38.872Z,6.93
2022-11-15T11:19:10.990Z,6.40
2022-11-15T11:21:44.415Z,8.60
2022-11-15T11:24:17.778Z,6.03
2022-11-15T11:26:52.932Z,5.10
2022-11-15T11:29:32.267Z,6.33
2022-11-15T11:32:05.216Z,5.87
2022-11-15T11:34:40.803Z,6.13
2022-11-15T11:37:15.022Z,9.40
2022-11-15T11:39:52.046Z,7.90
2022-11-15T11:42:26.556Z,8.77
2022-11-15T11:45:08.318Z,7.87
2022-11-15T11:47:39.985Z,8.33
2022-11-15T11:50:14.493Z,6.80
2022-11-15T11:52:47.693Z,8.20
2022-11-15T11:55:18.351Z,8.93
2022-11-15T11:57:49.751Z,7.27
2022-11-15T12:00:20.607Z,8.00
2022-11-15T12:02:51.123Z,6.73
2022-11-15T12:05:23.136Z,6.47
2022-11-15T12:07:53.790Z,6.63
2022-11-15T12:10:25.161Z,7.23
2022-11-15T12:12:57.152Z,4.37
2022-11-15T12:15:27.460Z,7.03
2022-11-15T12:17:57.883Z,5.57
2022-11-15T12:20:27.321Z,6.00
2022-11-15T12:22:58.634Z,5.53
2022-11-15T12:25:34.367Z,8.40
2022-11-15T12:28:09.546Z,5.97
2022-11-15T12:30:44.841Z,8.40
2022-11-15T12:33:28.573Z,8.63
2022-11-15T12:36:00.453Z,7.97
2022-11-15T12:38:43.706Z,6.80
2022-11-15T12:41:18.062Z,6.03
2022-11-15T12:43:47.055Z,5.63
2022-11-15T12:46:22.453Z,4.07
2022-11-15T12:48:52.901Z,5.23
2022-11-15T12:51:23.209Z,4.20
2022-11-15T12:53:51.585Z,4.73
2022-11-15T12:56:25.057Z,4.83
2022-11-15T12:58:58.011Z,6.53
2022-11-15T13:01:45.258Z,8.13
2022-11-15T13:04:25.106Z,9.33
2022-11-15T13:06:54.327Z,8.37
2022-11-15T13:09:43.987Z,6.13
2022-11-15T13:12:15.859Z,6.90
2022-11-15T13:14:46.037Z,8.63
2022-11-15T13:17:28.321Z,7.17
2022-11-15T13:20:00.888Z,9.03
2022-11-15T13:22:47.243Z,7.53
2022-11-15T13:25:20.970Z,7.00
2022-11-15T13:27:51.415Z,8.07
2022-11-15T13:30:22.734Z,9.37
2022-11-15T13:32:51.442Z,7.37
2022-11-15T13:35:24.040Z,9.50
2022-11-15T13:37:52.737Z,6.70
2022-11-15T13:40:23.791Z,6.60
2022-11-15T13:42:53.717Z,6.43
2022-11-15T13:45:22.632Z,9.60
2022-11-15T13:47:54.976Z,5.43
2022-11-15T13:50:24.763Z,9.63
2022-11-15T13:52:53.347Z,9.30
2022-11-15T13:55:23.537Z,6.60
2022-11-15T13:57:53.602Z,7.80
2022-11-15T14:00:29.437Z,6.43
2022-11-15T14:02:58.020Z,9.33
2022-11-15T14:05:27.530Z,7.10
2022-11-15T14:07:56.863Z,8.57
2022-11-15T14:10:31.827Z,8.60
2022-11-15T14:13:00.699Z,10.53
2022-11-15T14:15:33.013Z,9.23
2022-11-15T14:18:01.741Z,9.30
2022-11-15T14:20:34.002Z,8.70
2022-11-15T14:23:03.123Z,9.47
2022-11-15T14:25:31.886Z,9.47
2022-11-15T14:28:17.736Z,6.53
2022-11-15T14:30:51.307Z,11.93
2022-11-15T14:33:24.612Z,6.23
2022-11-15T14:35:53.129Z,6.60
2022-11-15T14:38:21.769Z,7.40
2022-11-15T14:40:50.403Z,7.37
2022-11-15T14:43:18.863Z,6.30
2022-11-15T14:45:48.663Z,6.90
2022-11-15T14:48:17.104Z,7.87
2022-11-15T14:50:46.515Z,7.37
2022-11-15T14:53:16.278Z,7.63
2022-11-15T14:55:45.077Z,7.07
2022-11-15T14:58:13.531Z,6.13
2022-11-15T15:00:43.900Z,5.63
2022-11-15T15:03:13.896Z,6.30
2022-11-15T15:05:43.098Z,5.43
2022-11-15T15:08:11.968Z,5.50
2022-11-15T15:10:41.974Z,5.53
2022-11-15T15:13:17.719Z,6.80
2022-11-15T15:15:47.925Z,6.93
2022-11-15T15:18:17.714Z,5.80
2022-11-15T15:20:47.344Z,7.27
2022-11-15T15:23:19.308Z,6.87
2022-11-15T15:25:49.738Z,5.57
2022-11-15T15:28:18.175Z,6.83
2022-11-15T15:30:46.641Z,8.50
2022-11-15T15:33:15.050Z,9.30
2022-11-15T15:35:44.931Z,7.03
2022-11-15T15:38:14.165Z,12.63
2022-11-15T15:40:42.825Z,9.90
2022-11-15T15:43:11.258Z,9.77
2022-11-15T15:45:40.273Z,11.47
2022-11-15T15:48:08.784Z,10.30
2022-11-15T15:50:37.559Z,9.93
2022-11-15T15:53:08.985Z,11.07
2022-11-15T15:55:37.385Z,11.13
2022-11-15T15:58:06.015Z,9.57
2022-11-15T16:00:34.748Z,12.77
2022-11-15T16:03:03.349Z,12.50
2022-11-15T16:05:31.797Z,10.10
2022-11-15T16:08:00.432Z,13.17
2022-11-15T16:10:30.967Z,15.27
2022-11-15T16:12:59.913Z,10.67
2022-11-15T16:15:29.321Z,11.37
2022-11-15T16:17:58.859Z,10.67
2022-11-15T16:20:32.596Z,13.90
2022-11-15T16:23:07.292Z,12.47
2022-11-15T16:25:40.737Z,11.10
2022-11-15T16:28:17.406Z,12.73
2022-11-15T16:30:45.781Z,12.07
2022-11-15T16:33:14.310Z,14.90
2022-11-15T16:35:42.725Z,12.87
2022-11-15T16:38:15.801Z,17.80
2022-11-15T16:40:45.648Z,21.03
2022-11-15T16:43:14.110Z,18.50
2022-11-15T16:45:42.784Z,16.67
2022-11-15T16:48:18.259Z,15.83
2022-11-15T16:50:46.673Z,15.27
2022-11-15T16:53:15.068Z,16.30
2022-11-15T16:55:43.454Z,16.77
2022-11-15T16:58:13.185Z,13.40
2022-11-15T17:00:41.625Z,17.43
2022-11-15T17:03:10.132Z,13.37
2022-11-15T17:05:38.715Z,15.87
2022-11-15T17:08:07.160Z,17.43
2022-11-15T17:10:35.983Z,13.97
2022-11-15T17:13:04.494Z,17.33
2022-11-15T17:15:34.433Z,12.93
2022-11-15T17:18:03.422Z,16.73
2022-11-15T17:20:31.818Z,10.50
2022-11-15T17:23:00.255Z,11.63
2022-11-15T17:25:28.656Z,12.47
2022-11-15T17:27:58.334Z,12.60
2022-11-15T17:30:27.102Z,10.83
2022-11-15T17:32:57.278Z,10.77
2022-11-15T17:35:25.668Z,11.43
2022-11-15T17:37:54.198Z,12.43
2022-11-15T17:40:22.668Z,10.83
2022-11-15T17:42:51.155Z,13.67
2022-11-15T17:45:19.697Z,12.77
2022-11-15T17:47:48.173Z,14.50
2022-11-15T17:50:18.600Z,14.60
2022-11-15T17:52:46.998Z,13.33
2022-11-15T17:55:15.551Z,15.73
2022-11-15T17:57:45.698Z,17.47
2022-11-15T18:00:14.701Z,14.70
2022-11-15T18:02:43.391Z,20.13
2022-11-15T18:05:12.401Z,18.23
2022-11-15T18:07:42.163Z,19.43
2022-11-15T18:10:13.650Z,18.40
2022-11-15T18:12:45.167Z,18.33
2022-11-15T18:15:14.393Z,19.63
2022-11-15T18:17:42.726Z,19.87
2022-11-15T18:20:11.486Z,20.43
2022-11-15T18:22:39.940Z,19.93
2022-11-15T18:25:09.980Z,16.57
2022-11-15T18:27:38.762Z,19.73
2022-11-15T18:30:08.990Z,17.97
2022-11-15T18:32:37.432Z,22.93
2022-11-15T18:35:06.527Z,19.10
2022-11-15T18:37:34.896Z,15.47
2022-11-15T18:40:03.889Z,15.50
2022-11-15T18:42:34.018Z,19.67
2022-11-15T18:45:02.851Z,15.17
2022-11-15T18:47:31.668Z,16.40
2022-11-15T18:50:00.186Z,17.77
2022-11-15T18:52:28.716Z,17.33
2022-11-15T18:54:57.375Z,15.10
2022-11-15T18:57:25.778Z,15.03
2022-11-15T18:59:55.599Z,12.80
2022-11-15T19:02:24.371Z,14.80
2022-11-15T19:04:52.794Z,15.43
2022-11-15T19:07:21.366Z,14.43
2022-11-15T19:09:49.916Z,14.30
2022-11-15T19:12:18.345Z,16.73
2022-11-15T19:14:46.776Z,15.80
2022-11-15T19:17:16.544Z,17.20
2022-11-15T19:19:44.951Z,20.50
2022-11-15T19:22:13.448Z,18.57
2022-11-15T19:24:41.912Z,20.40
2022-11-15T19:27:10.413Z,15.67
2022-11-15T19:29:38.897Z,22.53
2022-11-15T19:32:07.380Z,19.70
2022-11-15T19:34:41.618Z,24.13
2022-11-15T19:37:10.067Z,21.90
2022-11-15T19:39:41.240Z,20.47
2022-11-15T19:42:09.797Z,18.80
2022-11-15T19:44:38.234Z,21.83
2022-11-15T19:47:09.479Z,19.07
2022-11-15T19:49:39.348Z,19.13
2022-11-15T19:52:07.819Z,20.40
2022-11-15T19:54:36.303Z,18.20
2022-11-15T19:57:04.721Z,21.50
2022-11-15T19:59:33.171Z,18.23
2022-11-15T20:02:01.622Z,21.10
2022-11-15T20:04:30.124Z,18.33
2022-11-15T20:06:59.980Z,18.10
2022-11-15T20:09:28.554Z,20.10
2022-11-15T20:12:01.059Z,17.10
2022-11-15T20:14:30.407Z,15.53
2022-11-15T20:16:58.879Z,14.43
2022-11-15T20:19:27.518Z,17.27
2022-11-15T20:21:55.928Z,17.17
2022-11-15T20:24:26.534Z,15.43
2022-11-15T20:26:55.009Z,17.73
2022-11-15T20:29:23.428Z,16.23
2022-11-15T20:31:52.003Z,18.30
2022-11-15T20:34:20.463Z,17.43
2022-11-15T20:36:48.920Z,17.80
2022-11-15T20:39:17.338Z,22.47
2022-11-15T20:41:47.180Z,20.20
2022-11-15T20:44:16.930Z,19.47
2022-11-15T20:46:45.394Z,19.53
2022-11-15T20:49:13.793Z,20.93
2022-11-15T20:51:42.276Z,19.37
2022-11-15T20:54:10.777Z,19.60
2022-11-15T20:56:39.434Z,16.57
2022-11-15T20:59:09.543Z,21.23
2022-11-15T21:01:38.190Z,21.30
2022-11-15T21:04:07.027Z,19.73
2022-11-15T21:06:37.758Z,20.17
2022-11-15T21:09:23.990Z,19.50
2022-11-15T21:12:10.121Z,19.20
2022-11-15T21:14:40.079Z,19.93
2022-11-15T21:17:08.947Z,16.53
2022-11-15T21:19:37.889Z,19.50
2022-11-15T21:22:06.962Z,21.23
2022-11-15T21:24:35.470Z,17.23
2022-11-15T21:27:03.988Z,19.03
2022-11-15T21:29:37.549Z,16.53
2022-11-15T21:32:08.291Z,17.50
2022-11-15T21:34:36.810Z,20.37
2022-11-15T21:37:05.257Z,17.10
2022-11-15T21:39:33.763Z,16.33
2022-11-15T21:42:02.267Z,18.87
2022-11-15T21:44:30.882Z,15.03
2022-11-15T21:46:59.281Z,17.53
2022-11-15T21:49:29.058Z,17.77
2022-11-15T21:51:58.032Z,18.93
2022-11-15T21:54:26.498Z,19.07
2022-11-15T21:56:54.929Z,20.70
2022-11-15T21:59:23.557Z,26.27
2022-11-15T22:02:09.760Z,26.83
2022-11-15T22:04:39.705Z,22.13
2022-11-15T22:07:08.209Z,19.80
2022-11-15T22:09:36.775Z,19.00
2022-11-15T22:12:05.398Z,16.23
2022-11-15T22:14:33.848Z,15.67
2022-11-15T22:17:02.552Z,18.00
2022-11-15T22:19:31.225Z,15.53
2022-11-15T22:22:01.009Z,16.77
2022-11-15T22:24:29.778Z,16.20
2022-11-15T22:26:58.188Z,16.63
2022-11-15T22:29:26.777Z,13.60
2022-11-15T22:31:55.218Z,18.93
2022-11-15T22:34:23.780Z,18.50
2022-11-15T22:37:19.295Z,16.03
2022-11-15T22:39:42.621Z,19.40
2022-11-15T22:42:11.040Z,15.20
2022-11-15T22:44:39.463Z,14.43
2022-11-15T22:47:07.881Z,18.00
2022-11-15T22:49:36.321Z,17.63
2022-11-15T22:52:04.761Z,12.97
2022-11-15T22:54:33.180Z,11.47
2022-11-15T22:57:04.072Z,13.50
2022-11-15T22:59:32.732Z,13.90
2022-11-15T23:02:01.303Z,12.43
2022-11-15T23:04:30.048Z,14.40
2022-11-15T23:07:01.472Z,12.10
2022-11-15T23:09:32.935Z,12.60
2022-11-15T23:12:20.406Z,12.03
2022-11-15T23:14:48.849Z,15.63
2022-11-15T23:17:17.370Z,14.03
2022-11-15T23:19:46.134Z,13.07
2022-11-15T23:22:32.009Z,12.20
2022-11-15T23:25:00.659Z,14.03
2022-11-15T23:27:30.547Z,14.77
2022-11-15T23:30:16.752Z,13.20
2022-11-15T23:33:02.677Z,15.03
2022-11-15T23:35:33.661Z,15.63
2022-11-15T23:38:02.080Z,14.23
2022-11-15T23:40:30.532Z,16.37
2022-11-15T23:43:00.918Z,15.73
2022-11-15T23:45:29.480Z,14.93
2022-11-15T23:48:01.479Z,14.70
2022-11-15T23:50:32.668Z,14.80
2022-11-15T23:53:01.056Z,13.07
2022-11-15T23:55:29.504Z,13.30
2022-11-15T23:57:57.932Z,15.07
